Hlavní strana
METAR-TAF:

METAR-TAF

Letiště :

Lakselv, Norsko

zeměpisná šířka: 70-04N, zeměpisná délka: 024-59E, výška: 0 m

Aktuální stav počasí

Zpráva byla vytvořena před 32 minutami, v 21:50 UTC
vítr z různých směrů 2 kt
Teplota 3°C
Vlhkost vzduchu 65%
Tlak 989 hPa
Viditelnost 10 km a více

METAR: ENNA 252150Z AUTO VRB02KT 9999 NCD 03/M03 Q0989 RMK WIND 1800FT 27023KT

Čas: 23:22 (22:22 UTC)

Předpověď počasí

Předpověď platná od 25 v 18 UTC do 26 v 18 UTC
Jižní vítr 8 kt
Viditelnost 10 km a více
Skoro jasno ve výšce 3000 ft
Oblačno až skoro zataženo ve výšce 5000 ft
Změna
od 26 v 07 UTC do 26 v 09 UTC
Severoseverozápadní vítr 12 kt
Dočasný
od 26 v 09 UTC do 26 v 15 UTC
Severoseverozápadní vítr 20 kt s nárazy do 30 kt
Viditelnost: 4000 m
ve výšce 1400 ft
dešťové přeháňky, sníh

TAF: ENNA 2518/2618 17008KT 9999 FEW030 BKN050 BECMG 2607/2609 33012KT TEMPO 2609/2615 33020G30KT 4000 SHRASN VV014

Stav a předpovědi počasí z více než 4 000 letišť (zprávy METAR a TAF).

Červené a žluté tečky na mapě představují dostupné meteorologické stanice.

Když kurzor umístíte na tečku, zobrazí se název stanice.

Pak kliknutím zobrazíte stav a předpověď počasí.

Chcete-li změnit mapu, kliknutím na zelené tlačítko se znaménkem +mapu přiblížíte, kliknutím na zelené tlačítko se znaménkem – mapu oddálíte a kliknutím na zelené šipky přejdete na sousední mapy.


METAR-TAF: